sensor_id;sensor_type;location;lat;lon;timestamp;pressure;altitude;pressure_sealevel;temperature;humidity
28935;BME280;16044;52.726;-2.108;2022-08-04T00:01:31;100374.19;;;16.52;67.52
28935;BME280;16044;52.726;-2.108;2022-08-04T00:04:18;100366.84;;;16.46;67.61
28935;BME280;16044;52.726;-2.108;2022-08-04T00:07:21;100364.78;;;16.42;67.90
28935;BME280;16044;52.726;-2.108;2022-08-04T00:10:12;100368.94;;;16.44;67.39
28935;BME280;16044;52.726;-2.108;2022-08-04T00:12:47;100361.41;;;16.40;67.61
28935;BME280;16044;52.726;-2.108;2022-08-04T00:15:16;100363.53;;;16.37;67.64
28935;BME280;16044;52.726;-2.108;2022-08-04T00:17:54;100369.63;;;16.33;68.17
28935;BME280;16044;52.726;-2.108;2022-08-04T00:20:31;100361.88;;;16.30;68.16
28935;BME280;16044;52.726;-2.108;2022-08-04T00:23:00;100363.38;;;16.26;68.59
28935;BME280;16044;52.726;-2.108;2022-08-04T00:25:28;100359.38;;;16.22;68.97
28935;BME280;16044;52.726;-2.108;2022-08-04T00:27:55;100355.81;;;16.21;69.14
28935;BME280;16044;52.726;-2.108;2022-08-04T00:30:23;100348.03;;;16.18;69.34
28935;BME280;16044;52.726;-2.108;2022-08-04T00:32:51;100353.91;;;16.22;69.03
28935;BME280;16044;52.726;-2.108;2022-08-04T00:35:19;100340.72;;;16.12;69.80
28935;BME280;16044;52.726;-2.108;2022-08-04T00:37:46;100344.69;;;16.16;69.40
28935;BME280;16044;52.726;-2.108;2022-08-04T00:52:47;100349.38;;;16.02;70.01
28935;BME280;16044;52.726;-2.108;2022-08-04T00:58:28;100345.41;;;15.91;70.71
28935;BME280;16044;52.726;-2.108;2022-08-04T01:01:05;100342.91;;;15.90;70.95
28935;BME280;16044;52.726;-2.108;2022-08-04T01:10:12;100351.13;;;15.90;70.56
28935;BME280;16044;52.726;-2.108;2022-08-04T01:13:25;100340.19;;;15.90;70.36
28935;BME280;16044;52.726;-2.108;2022-08-04T01:16:03;100340.19;;;15.83;70.47
28935;BME280;16044;52.726;-2.108;2022-08-04T01:29:49;100346.50;;;15.70;72.06
28935;BME280;16044;52.726;-2.108;2022-08-04T01:32:32;100340.19;;;15.63;73.04
28935;BME280;16044;52.726;-2.108;2022-08-04T01:35:09;100350.72;;;15.66;72.18
28935;BME280;16044;52.726;-2.108;2022-08-04T01:40:17;100341.69;;;15.59;72.81
28935;BME280;16044;52.726;-2.108;2022-08-04T01:42:51;100348.22;;;15.58;72.73
28935;BME280;16044;52.726;-2.108;2022-08-04T01:45:19;100347.78;;;15.54;72.94
28935;BME280;16044;52.726;-2.108;2022-08-04T01:47:51;100352.84;;;15.51;73.10
28935;BME280;16044;52.726;-2.108;2022-08-04T01:50:21;100352.84;;;15.51;73.03
28935;BME280;16044;52.726;-2.108;2022-08-04T01:52:52;100351.59;;;15.47;72.98
28935;BME280;16044;52.726;-2.108;2022-08-04T01:55:20;100344.88;;;15.43;72.94
28935;BME280;16044;52.726;-2.108;2022-08-04T01:57:49;100346.13;;;15.40;73.13
28935;BME280;16044;52.726;-2.108;2022-08-04T02:00:20;100347.41;;;15.37;72.82
28935;BME280;16044;52.726;-2.108;2022-08-04T02:02:49;100343.63;;;15.32;73.13
28935;BME280;16044;52.726;-2.108;2022-08-04T02:05:20;100348.88;;;15.27;73.44
28935;BME280;16044;52.726;-2.108;2022-08-04T02:16:32;100341.09;;;15.10;74.62
28935;BME280;16044;52.726;-2.108;2022-08-04T02:19:35;100339.84;;;15.06;75.22
28935;BME280;16044;52.726;-2.108;2022-08-04T02:22:32;100340.25;;;15.10;74.16
28935;BME280;16044;52.726;-2.108;2022-08-04T02:25:07;100343.44;;;15.07;74.74
28935;BME280;16044;52.726;-2.108;2022-08-04T02:28:10;100340.47;;;15.08;74.23
28935;BME280;16044;52.726;-2.108;2022-08-04T02:31:02;100334.59;;;15.05;74.39
28935;BME280;16044;52.726;-2.108;2022-08-04T02:36:40;100349.06;;;14.98;74.80
28935;BME280;16044;52.726;-2.108;2022-08-04T02:39:10;100339.41;;;15.02;74.47
28935;BME280;16044;52.726;-2.108;2022-08-04T02:41:38;100345.72;;;14.96;74.83
28935;BME280;16044;52.726;-2.108;2022-08-04T02:44:09;100354.13;;;14.95;74.87
28935;BME280;16044;52.726;-2.108;2022-08-04T02:46:37;100354.34;;;14.93;75.30
28935;BME280;16044;52.726;-2.108;2022-08-04T02:49:09;100350.75;;;14.86;76.04
28935;BME280;16044;52.726;-2.108;2022-08-04T02:51:40;100349.09;;;14.92;75.32
28935;BME280;16044;52.726;-2.108;2022-08-04T02:54:09;100348.66;;;15.01;75.24
28935;BME280;16044;52.726;-2.108;2022-08-04T02:56:37;100344.88;;;15.02;75.56
28935;BME280;16044;52.726;-2.108;2022-08-04T02:59:07;100346.16;;;15.07;75.70
28935;BME280;16044;52.726;-2.108;2022-08-04T03:01:36;100341.09;;;15.17;75.06
28935;BME280;16044;52.726;-2.108;2022-08-04T03:17:02;100350.75;;;15.39;74.78
28935;BME280;16044;52.726;-2.108;2022-08-04T03:23:05;100353.28;;;15.34;75.10
28935;BME280;16044;52.726;-2.108;2022-08-04T03:33:41;100351.19;;;15.16;74.58
28935;BME280;16044;52.726;-2.108;2022-08-04T03:39:13;100370.06;;;15.05;75.53
28935;BME280;16044;52.726;-2.108;2022-08-04T04:28:10;100395.13;;;14.53;76.25
28935;BME280;16044;52.726;-2.108;2022-08-04T04:37:16;100391.66;;;14.73;76.88
28935;BME280;16044;52.726;-2.108;2022-08-04T04:39:51;100398.59;;;14.75;77.11
28935;BME280;16044;52.726;-2.108;2022-08-04T04:42:41;100399.44;;;14.82;76.55
28935;BME280;16044;52.726;-2.108;2022-08-04T04:45:53;100411.19;;;14.83;76.50
28935;BME280;16044;52.726;-2.108;2022-08-04T04:48:37;100409.94;;;14.86;76.27
28935;BME280;16044;52.726;-2.108;2022-08-04T04:54:21;100405.34;;;14.93;76.07
28935;BME280;16044;52.726;-2.108;2022-08-04T04:57:14;100413.31;;;14.94;76.36
28935;BME280;16044;52.726;-2.108;2022-08-04T05:00:04;100424.66;;;15.05;75.89
28935;BME280;16044;52.726;-2.108;2022-08-04T05:13:52;100432.22;;;14.96;76.34
28935;BME280;16044;52.726;-2.108;2022-08-04T05:16:43;100429.50;;;15.02;75.65
28935;BME280;16044;52.726;-2.108;2022-08-04T05:19:22;100441.28;;;15.03;76.00
28935;BME280;16044;52.726;-2.108;2022-08-04T05:22:28;100436.84;;;14.95;76.28
28935;BME280;16044;52.726;-2.108;2022-08-04T05:25:18;100444.41;;;14.93;76.60
28935;BME280;16044;52.726;-2.108;2022-08-04T05:27:56;100454.91;;;14.96;76.60
28935;BME280;16044;52.726;-2.108;2022-08-04T05:30:34;100448.19;;;15.06;76.25
28935;BME280;16044;52.726;-2.108;2022-08-04T05:33:06;100453.25;;;15.09;76.16
28935;BME280;16044;52.726;-2.108;2022-08-04T05:35:42;100451.59;;;15.14;76.19
28935;BME280;16044;52.726;-2.108;2022-08-04T05:38:34;100455.38;;;15.20;76.12
28935;BME280;16044;52.726;-2.108;2022-08-04T05:41:04;100452.22;;;15.23;76.33
28935;BME280;16044;52.726;-2.108;2022-08-04T05:43:35;100457.06;;;15.28;76.42
28935;BME280;16044;52.726;-2.108;2022-08-04T05:46:04;100458.53;;;15.37;76.17
28935;BME280;16044;52.726;-2.108;2022-08-04T05:48:32;100454.13;;;15.43;76.36
28935;BME280;16044;52.726;-2.108;2022-08-04T05:51:00;100459.59;;;15.56;75.98
28935;BME280;16044;52.726;-2.108;2022-08-04T05:53:29;100462.09;;;15.64;75.66
28935;BME280;16044;52.726;-2.108;2022-08-04T05:55:56;100461.25;;;15.70;75.85
28935;BME280;16044;52.726;-2.108;2022-08-04T05:58:28;100462.97;;;15.85;75.52
28935;BME280;16044;52.726;-2.108;2022-08-04T06:01:00;100474.69;;;16.18;75.13
28935;BME280;16044;52.726;-2.108;2022-08-04T06:03:32;100468.59;;;16.75;74.33
28935;BME280;16044;52.726;-2.108;2022-08-04T06:06:02;100482.72;;;17.17;73.59
28935;BME280;16044;52.726;-2.108;2022-08-04T06:08:30;100471.97;;;17.47;72.39
28935;BME280;16044;52.726;-2.108;2022-08-04T06:11:01;100477.34;;;17.61;71.13
28935;BME280;16044;52.726;-2.108;2022-08-04T06:13:36;100477.88;;;17.44;70.72
28935;BME280;16044;52.726;-2.108;2022-08-04T06:16:16;100487.72;;;17.52;69.77
28935;BME280;16044;52.726;-2.108;2022-08-04T06:18:59;100493.91;;;17.41;69.42
28935;BME280;16044;52.726;-2.108;2022-08-04T06:21:50;100503.13;;;17.21;70.35
28935;BME280;16044;52.726;-2.108;2022-08-04T06:24:23;100505.94;;;17.08;70.45
28935;BME280;16044;52.726;-2.108;2022-08-04T06:26:51;100502.56;;;17.06;70.77
28935;BME280;16044;52.726;-2.108;2022-08-04T06:29:20;100511.69;;;17.00;70.87
28935;BME280;16044;52.726;-2.108;2022-08-04T06:31:54;100503.53;;;16.86;71.59
28935;BME280;16044;52.726;-2.108;2022-08-04T06:34:44;100506.44;;;16.91;71.33
28935;BME280;16044;52.726;-2.108;2022-08-04T06:37:12;100509.44;;;16.83;71.85
28935;BME280;16044;52.726;-2.108;2022-08-04T06:40:01;100506.22;;;16.93;71.85
28935;BME280;16044;52.726;-2.108;2022-08-04T06:42:50;100516.28;;;17.06;71.58
28935;BME280;16044;52.726;-2.108;2022-08-04T06:45:19;100518.34;;;17.10;71.40
28935;BME280;16044;52.726;-2.108;2022-08-04T06:47:47;100520.47;;;17.40;71.43
28935;BME280;16044;52.726;-2.108;2022-08-04T06:50:15;100525.28;;;17.77;71.02
28935;BME280;16044;52.726;-2.108;2022-08-04T06:53:02;100528.50;;;17.99;69.71
28935;BME280;16044;52.726;-2.108;2022-08-04T06:55:30;100539.13;;;18.14;69.60
28935;BME280;16044;52.726;-2.108;2022-08-04T06:58:00;100532.47;;;18.28;69.21
28935;BME280;16044;52.726;-2.108;2022-08-04T07:00:29;100539.78;;;18.53;68.45
28935;BME280;16044;52.726;-2.108;2022-08-04T07:02:58;100530.47;;;18.54;67.83
28935;BME280;16044;52.726;-2.108;2022-08-04T07:05:25;100537.03;;;18.71;68.03
28935;BME280;16044;52.726;-2.108;2022-08-04T07:07:52;100543.63;;;18.88;67.58
28935;BME280;16044;52.726;-2.108;2022-08-04T07:10:25;100537.31;;;19.18;65.91
28935;BME280;16044;52.726;-2.108;2022-08-04T07:12:58;100541.13;;;19.17;65.07
28935;BME280;16044;52.726;-2.108;2022-08-04T07:15:27;100545.88;;;19.10;63.99
28935;BME280;16044;52.726;-2.108;2022-08-04T07:17:55;100537.66;;;18.92;63.63
28935;BME280;16044;52.726;-2.108;2022-08-04T07:20:27;100545.66;;;18.93;62.64
28935;BME280;16044;52.726;-2.108;2022-08-04T07:23:05;100546.03;;;18.78;63.22
28935;BME280;16044;52.726;-2.108;2022-08-04T07:25:36;100546.03;;;18.78;62.49
28935;BME280;16044;52.726;-2.108;2022-08-04T07:28:27;100551.06;;;18.63;63.10
28935;BME280;16044;52.726;-2.108;2022-08-04T07:30:56;100548.25;;;18.51;63.26
28935;BME280;16044;52.726;-2.108;2022-08-04T07:33:24;100554.97;;;18.55;62.75
28935;BME280;16044;52.726;-2.108;2022-08-04T07:35:54;100556.25;;;18.34;62.29
28935;BME280;16044;52.726;-2.108;2022-08-04T07:38:41;100558.50;;;18.37;61.35
28935;BME280;16044;52.726;-2.108;2022-08-04T07:41:24;100569.44;;;18.44;61.14
28935;BME280;16044;52.726;-2.108;2022-08-04T07:44:09;100569.75;;;18.36;60.46
28935;BME280;16044;52.726;-2.108;2022-08-04T07:46:39;100571.00;;;18.33;60.80
28935;BME280;16044;52.726;-2.108;2022-08-04T07:49:07;100573.03;;;18.19;60.64
28935;BME280;16044;52.726;-2.108;2022-08-04T07:51:35;100575.72;;;18.26;60.22
28935;BME280;16044;52.726;-2.108;2022-08-04T07:54:04;100576.09;;;18.11;59.98
28935;BME280;16044;52.726;-2.108;2022-08-04T07:56:35;100577.81;;;18.05;59.45
28935;BME280;16044;52.726;-2.108;2022-08-04T07:59:03;100578.94;;;18.23;59.21
28935;BME280;16044;52.726;-2.108;2022-08-04T08:01:31;100576.66;;;18.38;58.90
28935;BME280;16044;52.726;-2.108;2022-08-04T08:03:59;100572.59;;;18.66;58.84
28935;BME280;16044;52.726;-2.108;2022-08-04T08:06:27;100574.44;;;18.91;58.51
28935;BME280;16044;52.726;-2.108;2022-08-04T08:09:05;100581.19;;;19.25;56.51
28935;BME280;16044;52.726;-2.108;2022-08-04T08:11:47;100588.84;;;19.53;56.04
28935;BME280;16044;52.726;-2.108;2022-08-04T08:14:35;100585.72;;;19.80;54.13
28935;BME280;16044;52.726;-2.108;2022-08-04T08:17:04;100597.56;;;19.92;54.19
28935;BME280;16044;52.726;-2.108;2022-08-04T08:19:32;100601.06;;;20.11;53.51
28935;BME280;16044;52.726;-2.108;2022-08-04T08:22:00;100592.47;;;20.19;52.47
28935;BME280;16044;52.726;-2.108;2022-08-04T08:24:28;100591.75;;;20.36;52.26
28935;BME280;16044;52.726;-2.108;2022-08-04T08:26:57;100586.66;;;20.63;52.05
28935;BME280;16044;52.726;-2.108;2022-08-04T08:29:27;100591.41;;;20.79;52.06
28935;BME280;16044;52.726;-2.108;2022-08-04T08:31:56;100596.91;;;20.56;50.82
28935;BME280;16044;52.726;-2.108;2022-08-04T08:34:31;100605.75;;;20.22;51.30
28935;BME280;16044;52.726;-2.108;2022-08-04T08:37:03;100607.91;;;20.09;52.33
28935;BME280;16044;52.726;-2.108;2022-08-04T08:40:16;100605.72;;;19.87;52.27
28935;BME280;16044;52.726;-2.108;2022-08-04T08:43:27;100611.78;;;19.77;52.45
28935;BME280;16044;52.726;-2.108;2022-08-04T08:55:48;100601.34;;;20.21;54.39
28935;BME280;16044;52.726;-2.108;2022-08-04T08:58:34;100607.44;;;20.47;53.24
28935;BME280;16044;52.726;-2.108;2022-08-04T09:04:37;100621.69;;;20.44;50.57
28935;BME280;16044;52.726;-2.108;2022-08-04T09:10:21;100615.84;;;20.88;48.09
28935;BME280;16044;52.726;-2.108;2022-08-04T09:13:02;100621.91;;;21.01;46.91
28935;BME280;16044;52.726;-2.108;2022-08-04T09:16:05;100615.00;;;21.28;45.61
28935;BME280;16044;52.726;-2.108;2022-08-04T09:19:07;100626.63;;;21.30;42.29
28935;BME280;16044;52.726;-2.108;2022-08-04T09:22:12;100626.03;;;21.28;42.69
28935;BME280;16044;52.726;-2.108;2022-08-04T09:24:59;100619.75;;;21.15;42.19
28935;BME280;16044;52.726;-2.108;2022-08-04T09:27:51;100618.66;;;21.16;43.19
28935;BME280;16044;52.726;-2.108;2022-08-04T09:30:28;100619.75;;;21.15;43.73
28935;BME280;16044;52.726;-2.108;2022-08-04T09:33:33;100616.91;;;20.87;41.69
28935;BME280;16044;52.726;-2.108;2022-08-04T09:47:46;100614.16;;;20.87;42.77
28935;BME280;16044;52.726;-2.108;2022-08-04T09:50:33;100613.88;;;21.00;42.66
28935;BME280;16044;52.726;-2.108;2022-08-04T09:56:23;100618.00;;;20.86;43.48
28935;BME280;16044;52.726;-2.108;2022-08-04T10:01:40;100631.78;;;20.74;42.38
28935;BME280;16044;52.726;-2.108;2022-08-04T10:04:10;100630.69;;;20.75;42.89
28935;BME280;16044;52.726;-2.108;2022-08-04T10:10:26;100636.53;;;20.43;42.98
28935;BME280;16044;52.726;-2.108;2022-08-04T10:13:12;100631.38;;;20.47;43.67
28935;BME280;16044;52.726;-2.108;2022-08-04T10:15:50;100635.81;;;20.36;43.49
28935;BME280;16044;52.726;-2.108;2022-08-04T10:18:44;100635.47;;;20.56;43.20
28935;BME280;16044;52.726;-2.108;2022-08-04T10:27:33;100641.69;;;20.87;41.81
28935;BME280;16044;52.726;-2.108;2022-08-04T10:30:08;100649.00;;;20.81;41.12
28935;BME280;16044;52.726;-2.108;2022-08-04T10:32:44;100643.03;;;20.84;41.31
28935;BME280;16044;52.726;-2.108;2022-08-04T10:35:22;100641.94;;;20.97;41.93
28935;BME280;16044;52.726;-2.108;2022-08-04T10:38:09;100657.22;;;21.16;41.00
28935;BME280;16044;52.726;-2.108;2022-08-04T10:40:59;100642.22;;;21.24;40.24
28935;BME280;16044;52.726;-2.108;2022-08-04T10:43:50;100655.50;;;21.39;40.58
28935;BME280;16044;52.726;-2.108;2022-08-04T10:46:30;100662.69;;;21.40;40.98
28935;BME280;16044;52.726;-2.108;2022-08-04T10:49:04;100662.94;;;21.50;40.93
28935;BME280;16044;52.726;-2.108;2022-08-04T10:51:50;100664.28;;;21.48;39.98
28935;BME280;16044;52.726;-2.108;2022-08-04T10:57:04;100673.06;;;21.09;40.97
28935;BME280;16044;52.726;-2.108;2022-08-04T10:59:45;100668.25;;;21.16;41.31
28935;BME280;16044;52.726;-2.108;2022-08-04T11:02:27;100672.28;;;20.85;39.63
28935;BME280;16044;52.726;-2.108;2022-08-04T11:07:50;100668.06;;;20.82;41.15
28935;BME280;16044;52.726;-2.108;2022-08-04T11:10:22;100672.84;;;20.99;40.64
28935;BME280;16044;52.726;-2.108;2022-08-04T11:12:55;100677.50;;;21.10;40.97
28935;BME280;16044;52.726;-2.108;2022-08-04T11:15:49;100676.31;;;21.06;40.82
28935;BME280;16044;52.726;-2.108;2022-08-04T11:21:25;100680.03;;;21.12;40.70
28935;BME280;16044;52.726;-2.108;2022-08-04T11:24:13;100672.41;;;21.42;41.82
28935;BME280;16044;52.726;-2.108;2022-08-04T11:27:04;100691.34;;;21.51;39.90
28935;BME280;16044;52.726;-2.108;2022-08-04T11:30:03;100689.06;;;21.36;39.46
28935;BME280;16044;52.726;-2.108;2022-08-04T11:32:36;100691.00;;;21.35;39.62
28935;BME280;16044;52.726;-2.108;2022-08-04T11:35:27;100683.31;;;21.49;40.43
28935;BME280;16044;52.726;-2.108;2022-08-04T11:38:02;100684.00;;;21.56;41.04
28935;BME280;16044;52.726;-2.108;2022-08-04T11:40:41;100693.19;;;21.74;40.38
28935;BME280;16044;52.726;-2.108;2022-08-04T11:43:55;100707.00;;;21.74;40.04
28935;BME280;16044;52.726;-2.108;2022-08-04T11:46:38;100702.44;;;21.68;40.98
28935;BME280;16044;52.726;-2.108;2022-08-04T11:49:10;100702.25;;;21.86;40.37
28935;BME280;16044;52.726;-2.108;2022-08-04T11:51:43;100707.13;;;21.67;40.66
28935;BME280;16044;52.726;-2.108;2022-08-04T11:54:11;100713.59;;;21.73;41.20
28935;BME280;16044;52.726;-2.108;2022-08-04T11:56:39;100718.69;;;21.81;40.73
28935;BME280;16044;52.726;-2.108;2022-08-04T11:59:06;100719.28;;;21.83;39.39
28935;BME280;16044;52.726;-2.108;2022-08-04T12:10:20;100730.91;;;22.43;41.78
28935;BME280;16044;52.726;-2.108;2022-08-04T12:16:28;100724.25;;;22.55;42.27
28935;BME280;16044;52.726;-2.108;2022-08-04T12:19:06;100730.81;;;22.88;41.38
28935;BME280;16044;52.726;-2.108;2022-08-04T12:21:53;100739.22;;;22.76;39.72
28935;BME280;16044;52.726;-2.108;2022-08-04T12:24:38;100735.63;;;22.76;40.60
28935;BME280;16044;52.726;-2.108;2022-08-04T12:27:17;100739.31;;;22.65;40.71
28935;BME280;16044;52.726;-2.108;2022-08-04T12:29:57;100746.00;;;22.52;41.22
28935;BME280;16044;52.726;-2.108;2022-08-04T12:32:54;100741.19;;;22.30;42.26
28935;BME280;16044;52.726;-2.108;2022-08-04T12:35:40;100753.91;;;22.03;40.85
28935;BME280;16044;52.726;-2.108;2022-08-04T12:38:31;100756.66;;;22.03;40.60
28935;BME280;16044;52.726;-2.108;2022-08-04T12:41:00;100753.44;;;21.94;41.10
28935;BME280;16044;52.726;-2.108;2022-08-04T12:43:36;100746.88;;;21.83;42.00
28935;BME280;16044;52.726;-2.108;2022-08-04T12:46:07;100754.13;;;21.72;42.43
28935;BME280;16044;52.726;-2.108;2022-08-04T12:48:37;100750.50;;;21.72;41.98
28935;BME280;16044;52.726;-2.108;2022-08-04T12:51:07;100751.03;;;21.69;41.51
28935;BME280;16044;52.726;-2.108;2022-08-04T12:53:56;100758.03;;;21.48;41.11
28935;BME280;16044;52.726;-2.108;2022-08-04T12:56:26;100749.38;;;21.56;41.96
28935;BME280;16044;52.726;-2.108;2022-08-04T12:59:01;100747.69;;;21.55;41.38
28935;BME280;16044;52.726;-2.108;2022-08-04T13:01:31;100761.94;;;21.64;41.56
28935;BME280;16044;52.726;-2.108;2022-08-04T13:04:22;100761.47;;;21.67;41.50
28935;BME280;16044;52.726;-2.108;2022-08-04T13:07:08;100757.75;;;21.61;41.91
28935;BME280;16044;52.726;-2.108;2022-08-04T13:09:37;100766.59;;;21.75;41.98
28935;BME280;16044;52.726;-2.108;2022-08-04T13:12:11;100768.09;;;21.54;41.92
28935;BME280;16044;52.726;-2.108;2022-08-04T13:14:41;100767.59;;;21.45;42.09
28935;BME280;16044;52.726;-2.108;2022-08-04T13:17:10;100773.25;;;21.50;42.06
28935;BME280;16044;52.726;-2.108;2022-08-04T13:19:38;100770.50;;;21.50;41.79
28935;BME280;16044;52.726;-2.108;2022-08-04T13:22:28;100769.63;;;21.26;41.36
28935;BME280;16044;52.726;-2.108;2022-08-04T13:24:57;100768.47;;;21.10;41.17
28935;BME280;16044;52.726;-2.108;2022-08-04T13:27:46;100767.38;;;20.99;41.85
28935;BME280;16044;52.726;-2.108;2022-08-04T13:30:20;100772.66;;;21.01;42.47
28935;BME280;16044;52.726;-2.108;2022-08-04T13:32:56;100760.75;;;20.89;41.75
28935;BME280;16044;52.726;-2.108;2022-08-04T13:35:27;100764.84;;;20.98;42.14
28935;BME280;16044;52.726;-2.108;2022-08-04T13:38:16;100757.06;;;21.07;42.02
28935;BME280;16044;52.726;-2.108;2022-08-04T13:40:44;100760.41;;;21.20;42.01
28935;BME280;16044;52.726;-2.108;2022-08-04T13:43:27;100757.03;;;21.30;42.19
28935;BME280;16044;52.726;-2.108;2022-08-04T13:46:22;100758.03;;;21.48;41.85
28935;BME280;16044;52.726;-2.108;2022-08-04T13:49:00;100761.75;;;21.53;39.96
28935;BME280;16044;52.726;-2.108;2022-08-04T13:51:51;100761.81;;;21.58;40.23
28935;BME280;16044;52.726;-2.108;2022-08-04T13:54:45;100768.28;;;21.64;39.95
28935;BME280;16044;52.726;-2.108;2022-08-04T13:57:28;100766.13;;;21.66;39.71
28935;BME280;16044;52.726;-2.108;2022-08-04T14:00:03;100760.00;;;21.76;40.93
28935;BME280;16044;52.726;-2.108;2022-08-04T14:05:13;100772.22;;;21.80;40.73
28935;BME280;16044;52.726;-2.108;2022-08-04T14:08:03;100761.06;;;21.75;41.21
28935;BME280;16044;52.726;-2.108;2022-08-04T14:10:33;100769.22;;;21.82;42.02
28935;BME280;16044;52.726;-2.108;2022-08-04T14:13:03;100759.25;;;21.80;41.33
28935;BME280;16044;52.726;-2.108;2022-08-04T14:15:39;100758.31;;;21.75;40.24
28935;BME280;16044;52.726;-2.108;2022-08-04T14:18:30;100762.19;;;21.74;41.03
28935;BME280;16044;52.726;-2.108;2022-08-04T14:26:17;100768.88;;;21.78;39.88
28935;BME280;16044;52.726;-2.108;2022-08-04T14:28:45;100776.94;;;21.96;38.92
28935;BME280;16044;52.726;-2.108;2022-08-04T14:31:32;100771.78;;;22.00;37.83
28935;BME280;16044;52.726;-2.108;2022-08-04T14:34:00;100763.25;;;22.02;37.64
28935;BME280;16044;52.726;-2.108;2022-08-04T14:36:43;100759.50;;;22.08;37.57
28935;BME280;16044;52.726;-2.108;2022-08-04T14:39:37;100770.53;;;22.19;37.97
28935;BME280;16044;52.726;-2.108;2022-08-04T14:42:43;100755.50;;;22.15;36.72
28935;BME280;16044;52.726;-2.108;2022-08-04T14:45:36;100764.66;;;22.16;36.95
28935;BME280;16044;52.726;-2.108;2022-08-04T14:48:19;100766.56;;;22.27;36.96
28935;BME280;16044;52.726;-2.108;2022-08-04T14:50:48;100765.53;;;22.33;36.51
28935;BME280;16044;52.726;-2.108;2022-08-04T14:53:18;100766.38;;;22.34;35.47
28935;BME280;16044;52.726;-2.108;2022-08-04T14:55:55;100764.78;;;22.38;35.55
28935;BME280;16044;52.726;-2.108;2022-08-04T14:58:29;100781.81;;;22.47;36.62
28935;BME280;16044;52.726;-2.108;2022-08-04T15:01:08;100769.59;;;22.43;35.91
28935;BME280;16044;52.726;-2.108;2022-08-04T15:03:43;100771.94;;;22.22;35.18
28935;BME280;16044;52.726;-2.108;2022-08-04T15:06:17;100773.28;;;22.19;34.73
28935;BME280;16044;52.726;-2.108;2022-08-04T15:08:50;100775.94;;;22.14;35.38
28935;BME280;16044;52.726;-2.108;2022-08-04T15:11:20;100768.66;;;22.08;34.92
28935;BME280;16044;52.726;-2.108;2022-08-04T15:13:49;100777.53;;;22.10;35.89
28935;BME280;16044;52.726;-2.108;2022-08-04T15:16:16;100776.53;;;22.16;35.83
28935;BME280;16044;52.726;-2.108;2022-08-04T15:18:43;100780.13;;;22.17;36.43
28935;BME280;16044;52.726;-2.108;2022-08-04T15:21:15;100778.44;;;22.16;36.34
28935;BME280;16044;52.726;-2.108;2022-08-04T15:23:42;100777.88;;;22.14;36.55
28935;BME280;16044;52.726;-2.108;2022-08-04T15:26:12;100777.34;;;21.88;35.19
28935;BME280;16044;52.726;-2.108;2022-08-04T15:28:47;100785.78;;;21.82;36.48
28935;BME280;16044;52.726;-2.108;2022-08-04T15:31:18;100781.56;;;21.79;36.34
28935;BME280;16044;52.726;-2.108;2022-08-04T15:34:08;100783.03;;;21.70;35.94
28935;BME280;16044;52.726;-2.108;2022-08-04T15:36:53;100781.72;;;21.60;35.53
28935;BME280;16044;52.726;-2.108;2022-08-04T15:39:29;100778.88;;;21.55;36.31
28935;BME280;16044;52.726;-2.108;2022-08-04T15:45:18;100783.81;;;21.53;36.53
28935;BME280;16044;52.726;-2.108;2022-08-04T15:48:22;100787.50;;;21.47;36.17
28935;BME280;16044;52.726;-2.108;2022-08-04T15:53:21;100782.34;;;21.39;36.12
28935;BME280;16044;52.726;-2.108;2022-08-04T15:58:53;100797.94;;;21.21;36.06
28935;BME280;16044;52.726;-2.108;2022-08-04T16:01:21;100795.75;;;21.00;36.01
28935;BME280;16044;52.726;-2.108;2022-08-04T16:03:49;100792.53;;;21.03;36.26
28935;BME280;16044;52.726;-2.108;2022-08-04T16:09:03;100801.63;;;20.80;35.66
28935;BME280;16044;52.726;-2.108;2022-08-04T16:14:09;100803.66;;;20.84;35.76
28935;BME280;16044;52.726;-2.108;2022-08-04T16:19:22;100799.00;;;20.85;34.85
28935;BME280;16044;52.726;-2.108;2022-08-04T16:22:02;100804.75;;;20.83;34.46
28935;BME280;16044;52.726;-2.108;2022-08-04T16:24:36;100807.88;;;20.87;33.52
28935;BME280;16044;52.726;-2.108;2022-08-04T16:27:11;100816.38;;;20.86;32.54
28935;BME280;16044;52.726;-2.108;2022-08-04T16:29:41;100820.91;;;20.80;32.11
28935;BME280;16044;52.726;-2.108;2022-08-04T16:32:18;100813.59;;;20.74;33.96
28935;BME280;16044;52.726;-2.108;2022-08-04T16:35:03;100819.66;;;20.64;35.76
28935;BME280;16044;52.726;-2.108;2022-08-04T16:37:35;100825.75;;;20.66;36.67
28935;BME280;16044;52.726;-2.108;2022-08-04T16:48:10;100841.16;;;20.55;36.32
28935;BME280;16044;52.726;-2.108;2022-08-04T16:51:04;100830.47;;;20.47;36.82
28935;BME280;16044;52.726;-2.108;2022-08-04T16:53:35;100829.63;;;20.47;36.66
28935;BME280;16044;52.726;-2.108;2022-08-04T16:56:32;100841.59;;;20.40;36.93
28935;BME280;16044;52.726;-2.108;2022-08-04T16:59:08;100833.09;;;20.42;35.75
28935;BME280;16044;52.726;-2.108;2022-08-04T17:01:37;100838.22;;;20.38;36.52
28935;BME280;16044;52.726;-2.108;2022-08-04T17:04:10;100847.34;;;20.20;36.23
28935;BME280;16044;52.726;-2.108;2022-08-04T17:06:40;100837.66;;;20.18;36.67
28935;BME280;16044;52.726;-2.108;2022-08-04T17:09:10;100851.25;;;20.13;36.71
28935;BME280;16044;52.726;-2.108;2022-08-04T17:11:41;100854.34;;;20.04;36.24
28935;BME280;16044;52.726;-2.108;2022-08-04T17:14:09;100861.06;;;20.09;35.72
28935;BME280;16044;52.726;-2.108;2022-08-04T17:16:41;100848.06;;;19.97;36.21
28935;BME280;16044;52.726;-2.108;2022-08-04T17:19:09;100862.44;;;19.99;35.13
28935;BME280;16044;52.726;-2.108;2022-08-04T17:22:00;100863.97;;;19.95;36.01
28935;BME280;16044;52.726;-2.108;2022-08-04T17:24:33;100856.50;;;19.84;36.41
28935;BME280;16044;52.726;-2.108;2022-08-04T17:27:02;100861.38;;;19.82;37.20
28935;BME280;16044;52.726;-2.108;2022-08-04T17:29:50;100859.69;;;19.81;37.49
28935;BME280;16044;52.726;-2.108;2022-08-04T17:32:19;100867.81;;;19.76;37.11